createdAt,value
2023-03-17T00:00:57.649Z,98.56
2023-03-17T00:03:30.366Z,99.29
2023-03-17T00:06:04.549Z,100.00
2023-03-17T00:08:36.330Z,98.97
2023-03-17T00:11:14.972Z,98.96
2023-03-17T00:13:46.290Z,98.88
2023-03-17T00:16:20.488Z,98.44
2023-03-17T00:18:51.383Z,94.25
2023-03-17T00:21:28.072Z,98.59
2023-03-17T00:23:59.567Z,98.50
2023-03-17T00:26:32.580Z,100.00
2023-03-17T00:29:03.257Z,100.00
2023-03-17T00:31:34.302Z,96.73
2023-03-17T00:34:04.650Z,99.87
2023-03-17T00:36:37.591Z,93.17
2023-03-17T00:44:15.881Z,97.48
2023-03-17T00:46:46.655Z,98.63
2023-03-17T00:49:19.796Z,93.36
2023-03-17T00:51:51.262Z,94.68
2023-03-17T00:54:23.044Z,90.99
2023-03-17T00:56:56.461Z,90.40
2023-03-17T00:59:30.275Z,90.91
2023-03-17T01:02:01.035Z,97.10
2023-03-17T01:04:30.920Z,94.06
2023-03-17T01:07:03.697Z,93.10
2023-03-17T01:09:34.209Z,93.47
2023-03-17T01:12:08.378Z,92.10
2023-03-17T01:14:38.439Z,94.55
2023-03-17T01:17:13.305Z,95.24
2023-03-17T01:19:43.365Z,97.96
2023-03-17T01:22:14.161Z,100.00
2023-03-17T01:24:44.593Z,100.00
2023-03-17T01:27:17.669Z,100.00
2023-03-17T01:29:47.982Z,100.00
2023-03-17T01:32:18.021Z,100.00
2023-03-17T01:34:48.055Z,100.00
2023-03-17T01:37:18.263Z,100.00
2023-03-17T01:39:48.277Z,100.00
2023-03-17T01:42:20.947Z,100.00
2023-03-17T01:45:01.386Z,100.00
2023-03-17T01:47:32.809Z,100.00
2023-03-17T01:50:07.976Z,100.00
2023-03-17T01:52:41.572Z,100.00
2023-03-17T01:55:14.918Z,100.00
2023-03-17T01:57:50.910Z,100.00
2023-03-17T02:00:23.596Z,100.00
2023-03-17T02:02:57.956Z,100.00
2023-03-17T02:05:31.077Z,100.00
2023-03-17T02:08:01.850Z,100.00
2023-03-17T02:10:33.668Z,100.00
2023-03-17T02:13:07.869Z,100.00
2023-03-17T02:15:42.364Z,100.00
2023-03-17T02:18:14.139Z,100.00
2023-03-17T02:21:16.839Z,100.00
2023-03-17T02:23:50.232Z,100.00
2023-03-17T02:26:23.370Z,100.00
2023-03-17T02:28:53.966Z,100.00
2023-03-17T02:31:25.201Z,100.00
2023-03-17T02:33:56.787Z,100.00
2023-03-17T02:36:27.884Z,100.00
2023-03-17T02:39:01.463Z,100.00
2023-03-17T02:41:34.376Z,100.00
2023-03-17T02:44:04.938Z,100.00
2023-03-17T02:46:34.942Z,100.00
2023-03-17T02:49:05.629Z,100.00
2023-03-17T02:51:36.029Z,100.00
2023-03-17T02:54:08.781Z,100.00
2023-03-17T02:56:38.690Z,100.00
2023-03-17T02:59:08.803Z,100.00
2023-03-17T03:01:39.015Z,100.00
2023-03-17T03:04:10.095Z,100.00
2023-03-17T03:06:40.015Z,100.00
2023-03-17T03:09:13.274Z,100.00
2023-03-17T03:11:43.945Z,100.00
2023-03-17T03:14:14.236Z,100.00
2023-03-17T03:16:44.444Z,100.00
2023-03-17T03:19:14.483Z,100.00
2023-03-17T03:21:44.635Z,100.00
2023-03-17T03:24:17.624Z,100.00
2023-03-17T03:26:47.880Z,100.00
2023-03-17T03:29:18.181Z,100.00
2023-03-17T03:31:48.676Z,100.00
2023-03-17T03:34:19.211Z,100.00
2023-03-17T03:36:49.214Z,100.00
2023-03-17T03:39:22.147Z,100.00
2023-03-17T03:41:52.144Z,100.00
2023-03-17T03:44:22.323Z,100.00
2023-03-17T03:46:52.458Z,100.00
2023-03-17T03:49:22.779Z,100.00
2023-03-17T03:51:52.662Z,100.00
2023-03-17T03:54:25.223Z,100.00
2023-03-17T03:56:55.084Z,100.00
2023-03-17T03:59:25.143Z,100.00
2023-03-17T04:01:55.021Z,100.00
2023-03-17T04:04:25.431Z,100.00
2023-03-17T04:06:55.568Z,100.00
2023-03-17T04:09:28.513Z,100.00
2023-03-17T04:11:59.139Z,100.00
2023-03-17T04:14:29.149Z,100.00
2023-03-17T04:16:59.217Z,100.00
2023-03-17T04:19:29.073Z,100.00
2023-03-17T04:21:59.393Z,100.00
2023-03-17T04:24:32.007Z,100.00
2023-03-17T04:27:04.821Z,100.00
2023-03-17T04:29:36.218Z,100.00
2023-03-17T04:32:07.240Z,100.00
2023-03-17T04:34:37.433Z,100.00
2023-03-17T04:37:07.771Z,100.00
2023-03-17T04:39:40.864Z,100.00
2023-03-17T04:42:11.372Z,100.00
2023-03-17T04:44:41.450Z,100.00
2023-03-17T04:47:11.849Z,100.00
2023-03-17T04:49:42.113Z,100.00
2023-03-17T04:52:13.064Z,100.00
2023-03-17T04:54:45.737Z,100.00
2023-03-17T04:57:15.993Z,100.00
2023-03-17T04:59:46.263Z,100.00
2023-03-17T05:02:16.592Z,100.00
2023-03-17T05:04:46.820Z,100.00
2023-03-17T05:07:17.446Z,100.00
2023-03-17T05:09:50.626Z,100.00
2023-03-17T05:12:20.640Z,100.00
2023-03-17T05:14:53.909Z,100.00
2023-03-17T05:17:24.217Z,100.00
2023-03-17T05:19:54.241Z,100.00
2023-03-17T05:22:24.485Z,100.00
2023-03-17T05:24:57.028Z,100.00
2023-03-17T05:27:26.944Z,100.00
2023-03-17T05:29:56.908Z,100.00
2023-03-17T05:32:27.374Z,100.00
2023-03-17T05:34:57.975Z,100.00
2023-03-17T05:37:28.790Z,100.00
2023-03-17T05:40:01.339Z,100.00
2023-03-17T05:42:31.305Z,100.00
2023-03-17T05:45:01.439Z,100.00
2023-03-17T05:47:32.645Z,100.00
2023-03-17T05:50:02.949Z,100.00
2023-03-17T05:52:33.255Z,100.00
2023-03-17T05:55:06.055Z,100.00
2023-03-17T05:57:36.228Z,100.00
2023-03-17T06:00:08.031Z,100.00
2023-03-17T06:02:38.495Z,100.00
2023-03-17T06:05:10.141Z,100.00
2023-03-17T06:07:51.547Z,100.00
2023-03-17T06:10:26.589Z,100.00
2023-03-17T06:12:57.204Z,100.00
2023-03-17T06:15:27.743Z,100.00
2023-03-17T06:17:57.954Z,100.00
2023-03-17T06:20:28.304Z,100.00
2023-03-17T06:23:04.364Z,100.00
2023-03-17T06:25:38.644Z,100.00
2023-03-17T06:28:08.859Z,100.00
2023-03-17T06:30:40.899Z,100.00
2023-03-17T06:33:11.579Z,100.00
2023-03-17T06:35:41.748Z,100.00
2023-03-17T06:38:11.856Z,100.00
2023-03-17T06:40:44.987Z,100.00
2023-03-17T06:43:15.336Z,100.00
2023-03-17T06:45:45.611Z,100.00
2023-03-17T06:48:15.685Z,98.69
2023-03-17T06:50:47.454Z,89.86
2023-03-17T06:53:17.540Z,76.99
2023-03-17T06:55:50.324Z,66.13
2023-03-17T06:58:20.846Z,60.15
2023-03-17T07:00:54.152Z,55.44
2023-03-17T07:03:25.802Z,54.94
2023-03-17T07:05:55.805Z,53.03
2023-03-17T07:08:25.897Z,51.09
2023-03-17T07:11:00.171Z,50.78
2023-03-17T07:13:30.212Z,51.78
2023-03-17T07:16:00.810Z,50.83
2023-03-17T07:18:32.342Z,50.74
2023-03-17T07:21:03.209Z,51.17
2023-03-17T07:23:33.279Z,49.59
2023-03-17T07:26:06.910Z,48.67
2023-03-17T07:28:36.936Z,49.28
2023-03-17T07:31:09.218Z,47.32
2023-03-17T07:33:39.557Z,48.33
2023-03-17T07:36:11.063Z,51.09
2023-03-17T07:38:42.102Z,50.78
2023-03-17T07:41:15.187Z,50.44
2023-03-17T07:43:45.786Z,49.45
2023-03-17T07:46:15.803Z,48.76
2023-03-17T07:48:46.577Z,48.38
2023-03-17T07:51:21.542Z,48.99
2023-03-17T07:53:52.383Z,47.93
2023-03-17T07:56:24.910Z,48.81
2023-03-17T07:58:55.094Z,48.40
2023-03-17T08:01:25.565Z,47.61
2023-03-17T08:03:56.562Z,46.99
2023-03-17T08:06:27.688Z,45.73
2023-03-17T08:08:58.437Z,44.86
2023-03-17T08:11:31.222Z,46.06
2023-03-17T08:14:01.704Z,45.09
2023-03-17T08:16:32.602Z,44.48
2023-03-17T08:19:04.458Z,43.75
2023-03-17T08:21:34.401Z,42.80
2023-03-17T08:24:05.438Z,41.80
2023-03-17T08:26:38.351Z,41.76
2023-03-17T08:29:08.485Z,43.27
2023-03-17T08:31:40.620Z,41.16
2023-03-17T08:34:11.550Z,40.52
2023-03-17T08:36:41.954Z,39.88
2023-03-17T08:39:12.657Z,38.24
2023-03-17T08:41:45.465Z,39.55
2023-03-17T08:44:16.733Z,39.46
2023-03-17T08:46:47.516Z,40.53
2023-03-17T08:49:17.782Z,40.63
2023-03-17T08:51:49.194Z,39.72
2023-03-17T08:54:19.273Z,39.67
2023-03-17T08:56:52.187Z,40.17
2023-03-17T08:59:22.124Z,41.57
2023-03-17T09:01:54.716Z,41.46
2023-03-17T09:04:26.774Z,41.49
2023-03-17T09:07:06.588Z,39.91
2023-03-17T09:09:38.631Z,39.00
2023-03-17T09:12:11.840Z,37.72
2023-03-17T09:14:44.113Z,36.68
2023-03-17T09:17:15.761Z,35.51
2023-03-17T09:19:46.276Z,34.84
2023-03-17T09:22:17.685Z,34.70
2023-03-17T09:24:48.367Z,34.17
2023-03-17T09:27:21.028Z,34.38
2023-03-17T09:29:51.207Z,32.38
2023-03-17T09:32:21.500Z,31.30
2023-03-17T09:34:51.797Z,30.69
2023-03-17T09:37:22.002Z,29.32
2023-03-17T09:39:52.021Z,28.70
2023-03-17T09:42:36.452Z,28.27
2023-03-17T09:45:23.077Z,27.79
2023-03-17T09:48:05.463Z,28.11
2023-03-17T09:50:41.623Z,29.28
2023-03-17T09:53:19.164Z,31.02
2023-03-17T09:55:51.737Z,30.41
2023-03-17T09:58:32.355Z,30.77
2023-03-17T10:01:03.641Z,33.03
2023-03-17T10:03:34.245Z,31.47
2023-03-17T10:06:19.919Z,32.11
2023-03-17T10:08:57.756Z,31.32
2023-03-17T10:11:38.502Z,30.14
2023-03-17T10:14:32.026Z,28.55
2023-03-17T10:17:09.644Z,27.98
2023-03-17T10:19:47.073Z,26.70
2023-03-17T10:22:23.849Z,26.81
2023-03-17T10:24:57.371Z,25.91
2023-03-17T10:27:28.109Z,25.49
2023-03-17T10:30:01.234Z,23.57
2023-03-17T10:32:34.172Z,23.11
2023-03-17T10:35:04.866Z,24.02
2023-03-17T10:37:37.012Z,25.19
2023-03-17T10:40:10.716Z,25.07
2023-03-17T10:42:49.849Z,26.07
2023-03-17T10:45:29.902Z,24.96
2023-03-17T10:48:01.637Z,25.98
2023-03-17T10:50:34.511Z,25.72
2023-03-17T10:53:09.937Z,26.01
2023-03-17T10:55:45.453Z,26.92
2023-03-17T10:58:18.973Z,26.94
2023-03-17T11:01:00.413Z,27.47
2023-03-17T11:03:34.006Z,28.30
2023-03-17T11:06:06.558Z,28.47
2023-03-17T11:08:40.250Z,28.32
2023-03-17T11:11:13.255Z,28.92
2023-03-17T11:13:43.539Z,28.39
2023-03-17T11:16:24.087Z,28.59
2023-03-17T11:18:57.946Z,28.26
2023-03-17T11:21:33.017Z,29.31
2023-03-17T11:24:10.579Z,29.59
2023-03-17T11:26:58.205Z,29.11
2023-03-17T11:29:51.570Z,27.74
2023-03-17T11:32:31.677Z,26.48
2023-03-17T11:35:17.482Z,26.78
2023-03-17T11:38:05.391Z,27.07
2023-03-17T11:40:38.849Z,27.40
2023-03-17T11:43:26.319Z,26.82
2023-03-17T11:46:04.862Z,26.31
2023-03-17T11:48:47.590Z,26.79
2023-03-17T11:51:27.966Z,25.63
2023-03-17T11:54:09.792Z,24.20
2023-03-17T11:56:48.161Z,22.76
2023-03-17T11:59:29.219Z,21.63
2023-03-17T12:02:06.827Z,21.41
2023-03-17T12:04:46.771Z,22.03
2023-03-17T12:07:22.195Z,21.95
2023-03-17T12:10:01.412Z,20.64
2023-03-17T12:12:34.762Z,20.87
2023-03-17T12:15:06.351Z,21.38
2023-03-17T12:17:39.631Z,21.00
2023-03-17T12:20:18.700Z,21.33
2023-03-17T12:22:57.093Z,21.37
2023-03-17T12:25:33.478Z,22.10
2023-03-17T12:28:08.686Z,22.43
2023-03-17T12:30:47.930Z,22.31
2023-03-17T12:33:27.573Z,21.27
2023-03-17T12:36:01.300Z,20.73
2023-03-17T12:38:38.532Z,20.51
2023-03-17T12:41:28.875Z,21.15
2023-03-17T12:44:08.033Z,20.36
2023-03-17T12:47:06.962Z,21.64
2023-03-17T12:50:08.901Z,23.38
2023-03-17T12:52:53.932Z,23.14
2023-03-17T12:55:28.172Z,22.08
2023-03-17T12:58:03.909Z,22.13
2023-03-17T13:00:36.499Z,21.77
2023-03-17T13:03:24.875Z,21.80
2023-03-17T13:05:57.456Z,22.13
2023-03-17T13:08:33.569Z,22.19
2023-03-17T13:11:23.888Z,21.93
2023-03-17T13:14:17.493Z,22.51
2023-03-17T13:16:49.699Z,22.53
2023-03-17T13:19:26.911Z,22.14
2023-03-17T13:22:28.982Z,21.66
2023-03-17T13:25:18.432Z,21.51
2023-03-17T13:27:50.060Z,20.80
2023-03-17T13:30:59.815Z,20.23
2023-03-17T13:33:34.104Z,20.65
2023-03-17T13:36:34.829Z,20.66
2023-03-17T13:39:27.734Z,20.96
2023-03-17T13:42:32.983Z,21.29
2023-03-17T13:45:38.338Z,20.51
2023-03-17T13:48:37.475Z,20.20
2023-03-17T13:51:20.704Z,19.29
2023-03-17T13:53:54.613Z,19.52
2023-03-17T13:56:30.487Z,19.81
2023-03-17T13:59:12.017Z,19.53
2023-03-17T14:01:50.029Z,19.43
2023-03-17T14:04:23.754Z,19.48
2023-03-17T14:06:57.317Z,19.87
2023-03-17T14:09:38.114Z,20.27
2023-03-17T14:12:15.696Z,20.90
2023-03-17T14:14:53.495Z,21.09
2023-03-17T14:20:31.628Z,21.31
2023-03-17T14:23:04.121Z,21.98
2023-03-17T14:25:36.981Z,22.73
2023-03-17T14:28:11.185Z,24.00
2023-03-17T14:30:42.103Z,24.04
2023-03-17T14:33:27.569Z,24.91
2023-03-17T14:36:01.825Z,25.57
2023-03-17T14:38:33.830Z,24.65
2023-03-17T14:41:05.715Z,23.95
2023-03-17T14:43:37.280Z,23.22
2023-03-17T14:46:08.646Z,23.32
2023-03-17T14:48:45.047Z,23.16
2023-03-17T14:51:27.272Z,24.30
2023-03-17T14:54:01.183Z,24.76
2023-03-17T14:56:37.981Z,25.29
2023-03-17T14:59:09.622Z,25.37
2023-03-17T15:01:41.514Z,25.55
2023-03-17T15:04:18.397Z,25.49
2023-03-17T15:06:53.596Z,25.35
2023-03-17T15:09:31.631Z,24.94
2023-03-17T15:12:07.197Z,25.45
2023-03-17T15:14:41.504Z,25.83
2023-03-17T15:17:20.048Z,26.28
2023-03-17T15:19:58.508Z,27.23
2023-03-17T15:22:33.381Z,26.94
2023-03-17T15:25:06.318Z,27.46
2023-03-17T15:27:36.310Z,27.76
2023-03-17T15:30:07.568Z,28.58
2023-03-17T15:32:38.175Z,28.30
2023-03-17T15:35:15.920Z,29.17
2023-03-17T15:37:46.013Z,29.67
2023-03-17T15:40:17.152Z,29.92
2023-03-17T15:42:47.784Z,30.77
2023-03-17T15:45:18.041Z,31.36
2023-03-17T15:47:50.105Z,31.73
2023-03-17T15:50:28.633Z,32.33
2023-03-17T15:52:59.319Z,32.85
2023-03-17T15:55:32.077Z,32.32
2023-03-17T15:58:02.981Z,32.88
2023-03-17T16:00:33.935Z,33.99
2023-03-17T16:03:11.707Z,33.74
2023-03-17T16:05:45.456Z,33.88
2023-03-17T16:08:18.014Z,33.63
2023-03-17T16:10:48.496Z,34.14
2023-03-17T16:13:18.377Z,34.34
2023-03-17T16:15:55.927Z,34.94
2023-03-17T16:18:34.257Z,34.88
2023-03-17T16:21:07.754Z,36.63
2023-03-17T16:23:39.051Z,36.14
2023-03-17T16:26:16.122Z,36.54
2023-03-17T16:28:49.639Z,37.07
2023-03-17T16:31:23.673Z,37.57
2023-03-17T16:33:55.022Z,37.93
2023-03-17T16:36:28.642Z,38.83
2023-03-17T16:38:58.952Z,40.23
2023-03-17T16:41:30.895Z,39.91
2023-03-17T16:44:03.139Z,40.29
2023-03-17T16:46:36.945Z,41.23
2023-03-17T16:49:07.892Z,41.46
2023-03-17T16:51:40.781Z,42.51
2023-03-17T16:54:10.872Z,42.79
2023-03-17T16:56:41.783Z,43.45
2023-03-17T16:59:17.130Z,43.84
2023-03-17T17:01:47.371Z,44.06
2023-03-17T17:04:17.368Z,44.67
2023-03-17T17:06:50.344Z,45.07
2023-03-17T17:09:20.739Z,45.23
2023-03-17T17:11:51.041Z,46.10
2023-03-17T17:14:21.345Z,46.67
2023-03-17T17:16:51.840Z,47.14
2023-03-17T17:19:24.501Z,48.01
2023-03-17T17:21:57.505Z,48.87
2023-03-17T17:24:27.578Z,49.55
2023-03-17T17:26:57.864Z,50.87
2023-03-17T17:29:30.667Z,52.08
2023-03-17T17:32:04.827Z,52.83
2023-03-17T17:34:39.195Z,54.43
2023-03-17T17:37:14.602Z,55.60
2023-03-17T17:39:44.614Z,56.50
2023-03-17T17:42:16.889Z,57.65
2023-03-17T17:44:46.893Z,58.64
2023-03-17T17:47:17.935Z,59.77
2023-03-17T17:49:49.542Z,61.42
2023-03-17T17:52:22.353Z,62.94
2023-03-17T17:55:01.669Z,64.88
2023-03-17T17:57:33.758Z,65.66
2023-03-17T18:00:06.672Z,65.60
2023-03-17T18:02:39.241Z,62.26
2023-03-17T18:05:10.306Z,58.50
2023-03-17T18:07:43.962Z,58.23
2023-03-17T18:10:22.490Z,57.64
2023-03-17T18:12:53.889Z,58.83
2023-03-17T18:15:26.276Z,60.57
2023-03-17T18:17:57.711Z,59.79
2023-03-17T18:20:28.831Z,61.41
2023-03-17T18:23:03.509Z,57.94
2023-03-17T18:25:35.141Z,56.05
2023-03-17T18:28:05.407Z,56.31
2023-03-17T18:30:36.657Z,55.78
2023-03-17T18:33:11.745Z,57.22
2023-03-17T18:35:43.801Z,58.09
2023-03-17T18:38:17.707Z,57.93
2023-03-17T18:40:47.913Z,57.30
2023-03-17T18:43:20.037Z,61.00
2023-03-17T18:45:52.241Z,61.45
2023-03-17T18:48:23.147Z,60.31
2023-03-17T18:50:54.530Z,60.90
2023-03-17T18:53:34.467Z,63.09
2023-03-17T18:56:04.752Z,64.68
2023-03-17T18:58:34.769Z,65.25
2023-03-17T19:01:06.668Z,67.20
2023-03-17T19:03:37.055Z,65.69
2023-03-17T19:06:13.058Z,66.14
2023-03-17T19:08:51.182Z,66.98
2023-03-17T19:11:23.144Z,67.58
2023-03-17T19:13:56.198Z,68.31
2023-03-17T19:16:29.271Z,70.50
2023-03-17T19:18:59.639Z,70.89
2023-03-17T19:21:30.274Z,71.87
2023-03-17T19:24:05.743Z,70.84
2023-03-17T19:26:36.146Z,72.89
2023-03-17T19:29:07.259Z,71.59
2023-03-17T19:31:41.400Z,69.63
2023-03-17T19:34:12.738Z,68.47
2023-03-17T19:36:46.572Z,67.32
2023-03-17T19:39:19.595Z,69.17
2023-03-17T19:41:53.625Z,69.63
2023-03-17T19:44:24.502Z,67.93
2023-03-17T19:46:55.164Z,69.86
2023-03-17T19:49:25.118Z,72.00
2023-03-17T19:51:55.024Z,71.90
2023-03-17T19:54:28.356Z,71.53
2023-03-17T19:56:58.784Z,71.73
2023-03-17T19:59:28.756Z,71.54
2023-03-17T20:01:59.102Z,72.56
2023-03-17T20:04:29.249Z,74.11
2023-03-17T20:06:59.593Z,74.24
2023-03-17T20:09:32.666Z,74.94
2023-03-17T20:12:02.617Z,76.34
2023-03-17T20:14:33.342Z,76.09
2023-03-17T20:17:03.341Z,77.86
2023-03-17T20:19:33.414Z,78.52
2023-03-17T20:22:03.439Z,78.73
2023-03-17T20:24:37.163Z,77.75
2023-03-17T20:27:10.670Z,76.91
2023-03-17T20:29:41.427Z,77.40
2023-03-17T20:32:12.035Z,76.85
2023-03-17T20:34:42.289Z,83.78
2023-03-17T20:37:14.194Z,91.28
2023-03-17T20:39:47.166Z,92.29
2023-03-17T20:42:20.448Z,90.60
2023-03-17T20:44:53.174Z,82.59
2023-03-17T20:47:26.698Z,81.04
2023-03-17T20:49:59.060Z,81.20
2023-03-17T20:52:30.690Z,81.07
2023-03-17T20:55:06.019Z,82.12
2023-03-17T20:57:36.300Z,82.55
2023-03-17T21:00:16.531Z,93.56
2023-03-17T21:02:48.606Z,89.02
2023-03-17T21:05:21.519Z,92.57
2023-03-17T21:07:52.023Z,82.60
2023-03-17T21:10:25.119Z,81.03
2023-03-17T21:12:55.304Z,78.15
2023-03-17T21:15:25.719Z,76.97
2023-03-17T21:17:56.533Z,75.80
2023-03-17T21:20:26.415Z,74.60
2023-03-17T21:22:56.952Z,73.42
2023-03-17T21:25:29.570Z,71.24
2023-03-17T21:28:00.370Z,71.23
2023-03-17T21:30:30.724Z,80.73
2023-03-17T21:33:01.653Z,83.75
2023-03-17T21:35:34.735Z,84.71
2023-03-17T21:38:05.081Z,86.00
2023-03-17T21:40:38.005Z,86.34
2023-03-17T21:43:08.170Z,91.17
2023-03-17T21:45:38.984Z,89.61
2023-03-17T21:48:09.329Z,88.74
2023-03-17T21:50:40.074Z,91.09
2023-03-17T21:53:10.369Z,92.31
2023-03-17T21:55:42.994Z,91.10
2023-03-17T21:58:12.983Z,91.01
2023-03-17T22:00:45.987Z,90.20
2023-03-17T22:03:16.781Z,89.82
2023-03-17T22:05:47.299Z,87.91
2023-03-17T22:08:17.540Z,86.71
2023-03-17T22:10:50.155Z,88.32
2023-03-17T22:13:20.542Z,85.26
2023-03-17T22:15:50.997Z,85.84
2023-03-17T22:18:21.369Z,93.92
2023-03-17T22:20:51.207Z,91.47
2023-03-17T22:23:21.111Z,86.88
2023-03-17T22:25:53.888Z,85.84
2023-03-17T22:28:24.372Z,84.43
2023-03-17T22:30:54.642Z,81.39
2023-03-17T22:33:24.705Z,80.84
2023-03-17T22:35:55.117Z,81.23
2023-03-17T22:38:25.248Z,81.76
2023-03-17T22:41:08.175Z,78.60
2023-03-17T22:43:40.183Z,81.39
2023-03-17T22:46:11.433Z,79.41
2023-03-17T22:48:41.516Z,75.42
2023-03-17T22:51:14.811Z,76.74
2023-03-17T22:53:45.747Z,79.05
2023-03-17T22:56:20.295Z,75.43
2023-03-17T22:58:50.907Z,78.67
2023-03-17T23:01:22.512Z,72.98
2023-03-17T23:03:53.302Z,75.41
2023-03-17T23:06:24.903Z,79.24
2023-03-17T23:08:55.108Z,80.30
2023-03-17T23:11:29.277Z,77.28
2023-03-17T23:13:59.315Z,77.31
2023-03-17T23:16:29.674Z,83.31
2023-03-17T23:19:00.108Z,83.06
2023-03-17T23:21:32.101Z,78.57
2023-03-17T23:24:02.462Z,76.20
2023-03-17T23:26:36.075Z,75.74
2023-03-17T23:29:06.089Z,75.77
2023-03-17T23:31:36.876Z,77.36
2023-03-17T23:34:07.563Z,77.59
2023-03-17T23:36:40.261Z,76.79
2023-03-17T23:39:11.330Z,78.72
2023-03-17T23:41:45.261Z,77.07
2023-03-17T23:44:15.400Z,77.98
2023-03-17T23:46:46.467Z,81.99
2023-03-17T23:49:16.757Z,78.77
2023-03-17T23:51:48.348Z,76.30
2023-03-17T23:54:18.394Z,77.70
2023-03-17T23:56:51.368Z,78.21
2023-03-17T23:59:21.403Z,77.30
